Time;durP1;ratioP1;P1;durP2;ratioP2;P2;SDS_P1;SDS_P2;PMS_P1;PMS_P2;Temp;Humidity;BMP_temperature;BMP_pressure;BME280_temperature;BME280_humidity;BME280_pressure;Samples;Min_cycle;Max_cycle;Signal;HPM_P1;HPM_P2
2023/01/13 00:00:43;;;;;;;5.95;1.05;;;;;;;;;;7387566;19;19999;-73
2023/01/13 00:03:08;;;;;;;2.70;1.05;;;;;;;;;;7386195;19;20001;-74
2023/01/13 00:05:34;;;;;;;0.82;0.82;;;;;;;;;;7385612;19;20005;-76
2023/01/13 00:07:59;;;;;;;1.60;0.98;;;;;;;;;;7387639;19;20092;-73
2023/01/13 00:10:25;;;;;;;1.40;0.82;;;;;;;;;;7386070;19;20002;-73
2023/01/13 00:12:52;;;;;;;1.85;1.05;;;;;;;;;;7386942;19;20193;-74
2023/01/13 00:15:17;;;;;;;0.60;0.60;;;;;;;;;;7387376;19;20100;-74
2023/01/13 00:17:43;;;;;;;1.73;0.98;;;;;;;;;;7384941;19;19999;-74
2023/01/13 00:20:09;;;;;;;1.35;0.75;;;;;;;;;;7386061;19;20039;-74
2023/01/13 00:22:35;;;;;;;2.45;1.17;;;;;;;;;;7384278;19;20432;-74
2023/01/13 00:25:00;;;;;;;1.15;0.93;;;;;;;;;;7388918;19;20027;-74
2023/01/13 00:27:26;;;;;;;1.92;1.02;;;;;;;;;;7384318;19;20406;-73
2023/01/13 00:29:52;;;;;;;3.08;1.13;;;;;;;;;;7383260;19;20496;-74
2023/01/13 00:32:17;;;;;;;1.45;1.08;;;;;;;;;;7385510;19;20010;-74
2023/01/13 00:34:43;;;;;;;2.80;0.98;;;;;;;;;;7384685;19;20022;-74
2023/01/13 00:37:11;;;;;;;1.70;1.00;;;;;;;;;;7386215;19;20003;-74
2023/01/13 00:39:37;;;;;;;1.50;1.08;;;;;;;;;;7386986;19;20114;-74
2023/01/13 00:44:46;;;;;;;2.40;0.88;;;;;;;;;;7385462;19;20005;-74
2023/01/13 00:47:11;;;;;;;2.83;1.10;;;;;;;;;;7384442;19;20360;-74
2023/01/13 00:49:37;;;;;;;2.03;0.90;;;;;;;;;;7387865;19;20002;-73
2023/01/13 00:52:02;;;;;;;1.67;0.82;;;;;;;;;;7388319;19;19994;-74
2023/01/13 00:54:27;;;;;;;0.90;0.90;;;;;;;;;;7385732;19;20070;-75
2023/01/13 00:56:53;;;;;;;0.82;0.80;;;;;;;;;;7386578;19;20531;-74
2023/01/13 00:59:18;;;;;;;2.65;0.60;;;;;;;;;;7387009;19;20447;-73
2023/01/13 01:01:43;;;;;;;4.55;0.98;;;;;;;;;;7385357;19;20532;-74
2023/01/13 01:04:09;;;;;;;0.63;0.57;;;;;;;;;;7384265;19;20054;-73
2023/01/13 01:06:35;;;;;;;1.00;0.80;;;;;;;;;;7384747;19;20069;-74
2023/01/13 01:09:00;;;;;;;1.95;0.80;;;;;;;;;;7383680;19;20019;-74
2023/01/13 01:11:29;;;;;;;1.50;1.00;;;;;;;;;;7385272;19;20028;-73
2023/01/13 01:13:57;;;;;;;0.60;0.60;;;;;;;;;;7382609;19;19998;-74
2023/01/13 01:16:24;;;;;;;0.60;0.60;;;;;;;;;;7383676;19;19998;-75
2023/01/13 01:18:52;;;;;;;0.82;0.80;;;;;;;;;;7384818;19;20015;-73
2023/01/13 01:21:18;;;;;;;1.23;0.80;;;;;;;;;;7384298;19;20006;-74
2023/01/13 01:23:44;;;;;;;2.53;0.77;;;;;;;;;;7384444;19;20029;-73
2023/01/13 01:26:13;;;;;;;1.90;0.50;;;;;;;;;;7383404;19;20002;-74
2023/01/13 01:28:39;;;;;;;0.88;0.70;;;;;;;;;;7383320;19;20005;-73
2023/01/13 01:31:11;;;;;;;0.77;0.75;;;;;;;;;;7382807;19;20466;-74
2023/01/13 01:33:36;;;;;;;0.98;0.70;;;;;;;;;;7381985;19;20287;-74
2023/01/13 01:36:02;;;;;;;0.98;0.73;;;;;;;;;;7383619;19;19998;-75
2023/01/13 01:38:28;;;;;;;2.28;0.70;;;;;;;;;;7384833;19;20023;-74
2023/01/13 01:40:53;;;;;;;2.00;0.95;;;;;;;;;;7384071;19;20496;-74
2023/01/13 01:46:06;;;;;;;1.38;0.75;;;;;;;;;;7383714;19;20427;-74
2023/01/13 01:48:37;;;;;;;1.10;1.00;;;;;;;;;;7384469;19;20006;-73
2023/01/13 01:51:04;;;;;;;1.20;0.70;;;;;;;;;;7382930;19;20029;-74
2023/01/13 01:53:31;;;;;;;0.70;0.60;;;;;;;;;;7385399;19;20006;-72
2023/01/13 01:55:57;;;;;;;1.85;0.80;;;;;;;;;;7383763;19;20007;-73
2023/01/13 01:58:30;;;;;;;2.63;0.80;;;;;;;;;;7384268;19;20020;-74
2023/01/13 02:00:56;;;;;;;0.75;0.75;;;;;;;;;;7384945;19;20115;-73
2023/01/13 02:03:21;;;;;;;0.57;0.55;;;;;;;;;;7382880;19;20079;-75
2023/01/13 02:05:47;;;;;;;1.23;0.75;;;;;;;;;;7381367;19;19999;-75
2023/01/13 02:08:13;;;;;;;1.55;0.57;;;;;;;;;;7382333;19;20074;-75
2023/01/13 02:10:40;;;;;;;1.73;0.85;;;;;;;;;;7382103;19;20003;-75
2023/01/13 02:13:10;;;;;;;0.43;0.43;;;;;;;;;;7382087;19;20008;-74
2023/01/13 02:15:56;;;;;;;0.40;0.40;;;;;;;;;;7381093;19;20016;-74
2023/01/13 02:18:37;;;;;;;1.00;0.63;;;;;;;;;;7383325;19;20007;-74
2023/01/13 02:21:21;;;;;;;0.35;0.35;;;;;;;;;;7383088;19;20473;-74
2023/01/13 02:26:42;;;;;;;0.35;0.32;;;;;;;;;;7386950;19;20190;-74
2023/01/13 02:32:32;;;;;;;0.65;0.47;;;;;;;;;;7392654;19;20755;-73
2023/01/13 02:35:24;;;;;;;1.83;0.70;;;;;;;;;;7389649;19;20010;-73
2023/01/13 02:37:50;;;;;;;0.60;0.38;;;;;;;;;;7387663;19;20017;-72
2023/01/13 02:40:26;;;;;;;0.55;0.40;;;;;;;;;;7390916;19;20416;-73
2023/01/13 02:46:16;;;;;;;1.75;0.60;;;;;;;;;;7388801;19;20277;-74
2023/01/13 02:48:44;;;;;;;0.50;0.50;;;;;;;;;;7389909;19;20002;-73
2023/01/13 02:51:14;;;;;;;0.55;0.50;;;;;;;;;;7385708;19;20169;-73
2023/01/13 02:54:08;;;;;;;0.70;0.50;;;;;;;;;;7388638;19;20036;-73
2023/01/13 02:56:39;;;;;;;0.80;0.60;;;;;;;;;;7387296;19;20012;-73
2023/01/13 02:59:05;;;;;;;0.50;0.50;;;;;;;;;;7391199;19;20002;-73
2023/01/13 03:01:31;;;;;;;0.40;0.40;;;;;;;;;;7389652;19;20066;-74
2023/01/13 03:03:56;;;;;;;0.80;0.65;;;;;;;;;;7386979;19;20010;-75
2023/01/13 03:06:49;;;;;;;0.40;0.40;;;;;;;;;;7387598;19;20524;-74
2023/01/13 03:09:39;;;;;;;1.33;0.60;;;;;;;;;;7389103;19;20005;-73
2023/01/13 03:12:27;;;;;;;0.52;0.50;;;;;;;;;;7387066;19;20686;-73
2023/01/13 03:15:07;;;;;;;0.85;0.60;;;;;;;;;;7388237;19;20416;-74
2023/01/13 03:17:48;;;;;;;0.75;0.70;;;;;;;;;;7394094;19;19999;-73
2023/01/13 03:20:27;;;;;;;1.90;0.50;;;;;;;;;;7389132;19;19998;-72
2023/01/13 03:23:06;;;;;;;0.57;0.47;;;;;;;;;;7387695;19;20065;-73
2023/01/13 03:25:37;;;;;;;2.28;0.70;;;;;;;;;;7388753;19;19994;-73
2023/01/13 03:28:07;;;;;;;0.60;0.60;;;;;;;;;;7388879;19;19994;-74
2023/01/13 03:30:41;;;;;;;0.70;0.70;;;;;;;;;;7387611;19;20006;-73
2023/01/13 03:33:22;;;;;;;0.55;0.55;;;;;;;;;;7385498;19;20002;-73
2023/01/13 03:35:51;;;;;;;1.75;0.57;;;;;;;;;;7384926;19;20032;-73
2023/01/13 03:38:28;;;;;;;1.23;0.55;;;;;;;;;;7388562;19;20027;-74
2023/01/13 03:40:57;;;;;;;0.45;0.45;;;;;;;;;;7387962;19;20003;-74
2023/01/13 03:47:09;;;;;;;1.27;0.47;;;;;;;;;;7386536;19;20010;-73
2023/01/13 03:49:53;;;;;;;0.55;0.55;;;;;;;;;;7386615;19;20009;-75
2023/01/13 03:52:24;;;;;;;0.43;0.43;;;;;;;;;;7387653;19;20027;-74
2023/01/13 03:54:55;;;;;;;0.50;0.50;;;;;;;;;;7389073;19;20096;-73
2023/01/13 03:57:26;;;;;;;1.05;0.57;;;;;;;;;;7389185;19;20479;-74
2023/01/13 03:59:55;;;;;;;1.45;0.60;;;;;;;;;;7386779;19;20086;-74
2023/01/13 04:02:28;;;;;;;1.05;0.40;;;;;;;;;;7388532;19;20405;-75
2023/01/13 04:04:58;;;;;;;0.52;0.40;;;;;;;;;;7384465;19;20006;-73
2023/01/13 04:07:39;;;;;;;0.40;0.40;;;;;;;;;;7385909;19;20002;-74
2023/01/13 04:10:08;;;;;;;0.30;0.30;;;;;;;;;;7387024;19;20469;-73
2023/01/13 04:13:01;;;;;;;1.55;0.40;;;;;;;;;;7385608;19;20380;-74
2023/01/13 04:15:39;;;;;;;1.08;0.47;;;;;;;;;;7386165;19;20006;-73
2023/01/13 04:18:09;;;;;;;0.50;0.50;;;;;;;;;;7387508;19;20018;-74
2023/01/13 04:20:35;;;;;;;0.52;0.40;;;;;;;;;;7387623;19;19999;-74
2023/01/13 04:23:00;;;;;;;0.40;0.40;;;;;;;;;;7385271;19;20035;-75
2023/01/13 04:25:26;;;;;;;0.20;0.20;;;;;;;;;;7386506;19;20003;-73
2023/01/13 04:27:51;;;;;;;0.30;0.30;;;;;;;;;;7387595;19;19998;-74
2023/01/13 04:30:17;;;;;;;1.02;0.43;;;;;;;;;;7386582;19;20026;-73
2023/01/13 04:32:42;;;;;;;0.40;0.40;;;;;;;;;;7383675;19;20329;-73
2023/01/13 04:35:07;;;;;;;0.40;0.40;;;;;;;;;;7386297;19;20074;-74
2023/01/13 04:37:33;;;;;;;0.40;0.40;;;;;;;;;;7389025;19;20007;-73
2023/01/13 04:39:58;;;;;;;0.85;0.35;;;;;;;;;;7385232;19;20012;-73
2023/01/13 04:42:23;;;;;;;0.38;0.38;;;;;;;;;;7385525;19;20126;-73
2023/01/13 04:44:49;;;;;;;0.63;0.45;;;;;;;;;;7384364;19;20536;-73
2023/01/13 04:47:14;;;;;;;1.23;0.55;;;;;;;;;;7384100;19;20023;-74
2023/01/13 04:49:39;;;;;;;1.95;0.40;;;;;;;;;;7383997;19;20002;-74
2023/01/13 04:52:05;;;;;;;1.05;0.60;;;;;;;;;;7385517;19;19995;-73
2023/01/13 04:54:31;;;;;;;0.50;0.50;;;;;;;;;;7384456;19;20023;-73
2023/01/13 04:56:56;;;;;;;0.63;0.52;;;;;;;;;;7386736;19;20007;-74
2023/01/13 04:59:22;;;;;;;0.93;0.60;;;;;;;;;;7385688;19;19999;-74
2023/01/13 05:01:47;;;;;;;0.60;0.60;;;;;;;;;;7385657;19;20019;-73
2023/01/13 05:04:14;;;;;;;0.60;0.60;;;;;;;;;;7384286;19;20005;-75
2023/01/13 05:06:40;;;;;;;0.73;0.63;;;;;;;;;;7383503;19;20003;-74
2023/01/13 05:09:05;;;;;;;0.50;0.50;;;;;;;;;;7387250;19;20013;-73
2023/01/13 05:16:59;;;;;;;0.60;0.60;;;;;;;;;;7385889;19;20767;-74
2023/01/13 05:19:29;;;;;;;1.25;1.10;;;;;;;;;;7385293;19;19999;-74
2023/01/13 05:27:23;;;;;;;8.27;1.00;;;;;;;;;;7386211;19;20566;-74
2023/01/13 05:29:48;;;;;;;2.92;0.70;;;;;;;;;;7384834;19;20093;-72
2023/01/13 05:32:14;;;;;;;1.83;0.65;;;;;;;;;;7384843;19;19995;-72
2023/01/13 05:34:45;;;;;;;1.80;0.60;;;;;;;;;;7385276;19;20300;-72
2023/01/13 05:37:45;;;;;;;;;;;;;;;;;;7390044;19;20083;-72
2023/01/13 05:43:24;;;;;;;0.50;0.50;;;;;;;;;;7385449;19;20011;-71
2023/01/13 05:46:16;;;;;;;1.00;0.57;;;;;;;;;;7389459;19;19999;-71
2023/01/13 05:48:48;;;;;;;0.70;0.63;;;;;;;;;;7390045;19;19995;-74
2023/01/13 05:51:16;;;;;;;1.50;0.50;;;;;;;;;;7386709;19;20002;-72
2023/01/13 05:53:41;;;;;;;1.92;0.45;;;;;;;;;;7387751;19;20006;-72
2023/01/13 05:56:08;;;;;;;2.10;0.30;;;;;;;;;;7385740;19;20106;-72
2023/01/13 05:58:33;;;;;;;1.23;0.40;;;;;;;;;;7387614;19;20445;-71
2023/01/13 06:01:04;;;;;;;1.75;0.38;;;;;;;;;;7390142;19;20002;-73
2023/01/13 06:03:30;;;;;;;0.30;0.30;;;;;;;;;;7391113;19;19995;-73
2023/01/13 06:05:58;;;;;;;0.57;0.38;;;;;;;;;;7390452;19;20476;-74
2023/01/13 06:08:24;;;;;;;0.55;0.40;;;;;;;;;;7387059;19;20448;-71
2023/01/13 06:10:49;;;;;;;1.65;1.10;;;;;;;;;;7387948;19;19998;-74
2023/01/13 06:13:15;;;;;;;1.02;0.77;;;;;;;;;;7335574;19;20009;-75
2023/01/13 06:15:40;;;;;;;1.35;0.30;;;;;;;;;;7391093;19;20452;-73
2023/01/13 06:18:05;;;;;;;0.43;0.43;;;;;;;;;;7394785;19;20349;-75
2023/01/13 06:20:31;;;;;;;0.52;0.30;;;;;;;;;;7395134;19;20006;-73
2023/01/13 06:22:57;;;;;;;0.98;0.52;;;;;;;;;;7392629;19;20020;-74
2023/01/13 06:25:44;;;;;;;1.33;0.80;;;;;;;;;;7393436;19;19994;-74
2023/01/13 06:28:10;;;;;;;3.03;1.77;;;;;;;;;;7394750;19;19999;-74
2023/01/13 06:30:40;;;;;;;4.05;2.00;;;;;;;;;;7389854;19;20003;-74
2023/01/13 06:33:16;;;;;;;1.20;0.80;;;;;;;;;;7381839;19;20854;-72
2023/01/13 06:35:50;;;;;;;3.30;1.88;;;;;;;;;;7386438;19;20003;-73
2023/01/13 06:38:18;;;;;;;2.38;1.70;;;;;;;;;;7390956;19;20428;-74
2023/01/13 06:40:43;;;;;;;2.08;0.70;;;;;;;;;;7388976;19;20007;-73
2023/01/13 06:43:14;;;;;;;2.58;0.70;;;;;;;;;;7391405;19;20369;-75
2023/01/13 06:45:54;;;;;;;0.80;0.55;;;;;;;;;;7388701;19;20062;-72
2023/01/13 06:48:27;;;;;;;0.68;0.50;;;;;;;;;;7392912;19;20003;-74
2023/01/13 06:50:53;;;;;;;0.70;0.65;;;;;;;;;;7390977;19;19998;-73
2023/01/13 06:53:19;;;;;;;3.05;0.45;;;;;;;;;;7392613;19;19994;-75
2023/01/13 06:55:45;;;;;;;0.47;0.47;;;;;;;;;;7393388;19;20177;-73
2023/01/13 06:58:10;;;;;;;2.17;0.82;;;;;;;;;;7394826;19;19998;-73
2023/01/13 07:00:36;;;;;;;1.33;1.20;;;;;;;;;;7392461;19;19991;-73
2023/01/13 07:03:12;;;;;;;0.93;0.77;;;;;;;;;;7389417;19;19990;-73
2023/01/13 07:05:38;;;;;;;3.42;1.05;;;;;;;;;;7391776;19;20002;-73
2023/01/13 07:08:04;;;;;;;2.47;1.00;;;;;;;;;;7391316;19;20018;-72
2023/01/13 07:10:31;;;;;;;7.38;2.88;;;;;;;;;;7390856;19;20010;-73
2023/01/13 07:16:01;;;;;;;2.78;1.17;;;;;;;;;;7389642;19;20114;-73
2023/01/13 07:18:31;;;;;;;4.85;2.30;;;;;;;;;;7380274;19;20028;-74
2023/01/13 07:20:59;;;;;;;9.13;4.80;;;;;;;;;;7390323;19;20020;-74
2023/01/13 07:23:27;;;;;;;5.63;3.15;;;;;;;;;;7388440;19;20064;-74
2023/01/13 07:25:57;;;;;;;1.75;1.00;;;;;;;;;;7390450;19;20002;-75
2023/01/13 07:28:24;;;;;;;1.77;0.95;;;;;;;;;;7392364;19;19998;-73
2023/01/13 07:30:49;;;;;;;1.65;0.93;;;;;;;;;;7391537;19;20103;-73
2023/01/13 07:33:14;;;;;;;3.30;0.85;;;;;;;;;;7388995;19;20321;-73
2023/01/13 07:35:40;;;;;;;2.47;0.90;;;;;;;;;;7390237;19;19998;-75
2023/01/13 07:38:07;;;;;;;0.47;0.40;;;;;;;;;;7386813;19;20753;-73
2023/01/13 07:40:32;;;;;;;0.65;0.50;;;;;;;;;;7386612;19;20006;-72
2023/01/13 07:45:41;;;;;;;3.13;1.23;;;;;;;;;;7389843;19;20024;-75
2023/01/13 07:48:07;;;;;;;1.42;1.05;;;;;;;;;;7385876;19;20677;-73
2023/01/13 07:50:32;;;;;;;1.65;1.23;;;;;;;;;;7387234;19;19998;-73
2023/01/13 07:52:58;;;;;;;3.70;1.60;;;;;;;;;;7387450;19;20024;-75
2023/01/13 07:55:23;;;;;;;2.67;1.30;;;;;;;;;;7387136;19;20002;-73
2023/01/13 07:57:48;;;;;;;2.97;1.02;;;;;;;;;;7380484;19;20018;-74
2023/01/13 08:00:14;;;;;;;0.85;0.60;;;;;;;;;;7390900;19;20456;-74
2023/01/13 08:02:40;;;;;;;1.52;0.95;;;;;;;;;;7387951;19;20822;-74
2023/01/13 08:05:06;;;;;;;0.98;0.88;;;;;;;;;;7387251;19;19995;-72
2023/01/13 08:07:31;;;;;;;2.97;1.17;;;;;;;;;;7388812;19;20394;-72
2023/01/13 08:09:57;;;;;;;1.40;0.80;;;;;;;;;;7386707;19;20021;-73
2023/01/13 08:15:08;;;;;;;1.38;0.85;;;;;;;;;;7388717;19;20119;-73
2023/01/13 08:17:34;;;;;;;1.55;1.15;;;;;;;;;;7388172;19;20002;-74
2023/01/13 08:20:00;;;;;;;2.58;0.70;;;;;;;;;;7389024;19;19999;-73
2023/01/13 08:22:25;;;;;;;3.75;0.98;;;;;;;;;;7387803;19;20009;-74
2023/01/13 08:24:51;;;;;;;4.80;0.80;;;;;;;;;;7385591;19;20002;-73
2023/01/13 08:27:16;;;;;;;1.33;0.70;;;;;;;;;;7393936;19;20002;-73
2023/01/13 08:29:42;;;;;;;1.92;0.70;;;;;;;;;;7392942;19;20041;-74
2023/01/13 08:32:07;;;;;;;1.00;0.65;;;;;;;;;;7391929;19;20006;-72
2023/01/13 08:34:34;;;;;;;5.47;1.08;;;;;;;;;;7388857;19;20017;-74
2023/01/13 08:36:59;;;;;;;2.40;0.77;;;;;;;;;;7390748;19;20034;-72
2023/01/13 08:39:25;;;;;;;3.53;0.85;;;;;;;;;;7390491;19;19998;-74
2023/01/13 08:41:57;;;;;;;4.28;0.98;;;;;;;;;;7390325;19;20031;-72
2023/01/13 08:44:27;;;;;;;1.52;0.70;;;;;;;;;;7387003;19;20478;-72
2023/01/13 08:46:53;;;;;;;6.70;1.10;;;;;;;;;;7388404;19;20002;-73
2023/01/13 08:49:20;;;;;;;2.42;0.80;;;;;;;;;;7389169;19;20108;-72
2023/01/13 08:51:45;;;;;;;3.38;0.93;;;;;;;;;;7389867;19;20006;-72
2023/01/13 08:54:11;;;;;;;1.45;0.90;;;;;;;;;;7387691;19;20005;-72
2023/01/13 08:56:37;;;;;;;3.03;1.05;;;;;;;;;;7384127;19;20353;-73
2023/01/13 08:59:03;;;;;;;2.03;0.82;;;;;;;;;;7386059;19;20024;-71
2023/01/13 09:01:28;;;;;;;4.30;1.17;;;;;;;;;;7388901;19;19994;-73
2023/01/13 09:03:54;;;;;;;1.75;0.68;;;;;;;;;;7384113;19;20479;-72
2023/01/13 09:06:19;;;;;;;2.53;1.00;;;;;;;;;;7385956;19;20003;-71
2023/01/13 09:08:45;;;;;;;3.60;0.95;;;;;;;;;;7389505;19;20373;-71
2023/01/13 09:14:01;;;;;;;3.85;1.00;;;;;;;;;;7388136;19;20024;-74
2023/01/13 09:16:27;;;;;;;3.33;1.02;;;;;;;;;;7386466;19;20003;-72
2023/01/13 09:18:52;;;;;;;2.72;0.82;;;;;;;;;;7381900;19;19995;-73
2023/01/13 09:21:19;;;;;;;1.98;1.05;;;;;;;;;;7387288;19;19999;-72
2023/01/13 09:23:45;;;;;;;2.55;1.00;;;;;;;;;;7385069;19;20010;-72
2023/01/13 09:26:11;;;;;;;2.72;0.65;;;;;;;;;;7385983;19;20256;-73
2023/01/13 09:28:36;;;;;;;1.98;1.08;;;;;;;;;;7387930;19;20476;-72
2023/01/13 09:31:02;;;;;;;2.95;0.90;;;;;;;;;;7386342;19;20002;-72
2023/01/13 09:36:11;;;;;;;1.30;0.82;;;;;;;;;;7386245;19;20009;-73
2023/01/13 09:38:36;;;;;;;2.75;1.20;;;;;;;;;;7387204;19;19999;-72
2023/01/13 09:43:52;;;;;;;3.08;0.93;;;;;;;;;;7387896;19;19998;-72
2023/01/13 09:44:01;;;;;;;4.75;1.30;;;;;;;;;;7384268;19;20455;-73
2023/01/13 09:46:46;;;;;;;3.22;1.30;;;;;;;;;;7376776;19;20037;-72
2023/01/13 09:49:37;;;;;;;3.08;1.00;;;;;;;;;;7385142;19;20031;-75
2023/01/13 09:52:15;;;;;;;4.15;1.00;;;;;;;;;;7384095;19;20081;-73
2023/01/13 09:55:13;;;;;;;2.92;1.08;;;;;;;;;;7382487;19;20083;-74
2023/01/13 09:57:39;;;;;;;2.70;1.13;;;;;;;;;;7386168;19;19999;-74
2023/01/13 10:00:39;;;;;;;3.08;1.10;;;;;;;;;;7385020;19;20034;-72
2023/01/13 10:03:27;;;;;;;3.17;1.02;;;;;;;;;;7386000;19;19999;-71
2023/01/13 10:06:05;;;;;;;3.85;1.25;;;;;;;;;;7382922;19;20589;-72
2023/01/13 10:08:37;;;;;;;4.47;1.33;;;;;;;;;;7382555;19;19999;-72
2023/01/13 10:13:55;;;;;;;5.50;1.30;;;;;;;;;;7384460;19;20016;-72
2023/01/13 10:16:40;;;;;;;2.90;0.80;;;;;;;;;;7384939;19;20002;-72
2023/01/13 10:19:29;;;;;;;2.40;0.80;;;;;;;;;;7386939;19;20006;-72
2023/01/13 10:22:16;;;;;;;4.05;1.20;;;;;;;;;;7387876;19;19995;-70
2023/01/13 10:24:56;;;;;;;3.92;1.08;;;;;;;;;;7382124;19;20316;-71
2023/01/13 10:27:27;;;;;;;4.28;1.30;;;;;;;;;;7385109;19;20006;-71
2023/01/13 10:29:52;;;;;;;5.15;1.75;;;;;;;;;;7384710;19;20013;-71
2023/01/13 10:32:18;;;;;;;5.22;1.40;;;;;;;;;;7383918;19;20463;-72
2023/01/13 10:34:50;;;;;;;4.40;1.10;;;;;;;;;;7376953;19;20136;-72
2023/01/13 10:37:26;;;;;;;5.15;1.08;;;;;;;;;;7385516;19;20002;-70
2023/01/13 10:39:59;;;;;;;4.30;1.20;;;;;;;;;;7386681;19;19991;-71
2023/01/13 10:42:24;;;;;;;4.25;1.42;;;;;;;;;;7383838;19;20344;-70
2023/01/13 10:44:52;;;;;;;4.40;1.10;;;;;;;;;;7381042;19;20020;-70
2023/01/13 10:47:26;;;;;;;3.72;1.17;;;;;;;;;;7389328;19;19999;-71
2023/01/13 10:50:13;;;;;;;6.40;1.70;;;;;;;;;;7390861;19;20019;-72
2023/01/13 10:53:15;;;;;;;2.83;1.02;;;;;;;;;;7390289;19;20376;-73
2023/01/13 10:55:59;;;;;;;2.83;1.00;;;;;;;;;;7389941;19;20001;-72
2023/01/13 10:58:25;;;;;;;5.47;1.35;;;;;;;;;;7387819;19;20677;-73
2023/01/13 11:01:02;;;;;;;9.55;1.33;;;;;;;;;;7391480;19;20005;-72
2023/01/13 11:03:40;;;;;;;5.88;1.40;;;;;;;;;;7322730;19;19998;-72
2023/01/13 11:06:06;;;;;;;7.03;1.30;;;;;;;;;;7386252;19;20449;-72
2023/01/13 11:08:48;;;;;;;5.05;1.58;;;;;;;;;;7387337;19;19995;-73
2023/01/13 11:11:40;;;;;;;5.07;1.13;;;;;;;;;;7385177;19;19998;-70
2023/01/13 11:14:35;;;;;;;3.67;1.30;;;;;;;;;;7391876;19;20298;-71
2023/01/13 11:17:12;;;;;;;4.82;1.48;;;;;;;;;;7388738;19;20002;-72
2023/01/13 11:19:47;;;;;;;3.53;1.23;;;;;;;;;;7387679;19;20438;-72
2023/01/13 11:22:22;;;;;;;2.67;1.20;;;;;;;;;;7388442;19;20022;-71
2023/01/13 11:24:52;;;;;;;6.25;1.65;;;;;;;;;;7385521;19;19998;-71
2023/01/13 11:27:32;;;;;;;3.50;1.25;;;;;;;;;;7388466;19;20553;-71
2023/01/13 11:30:35;;;;;;;6.97;1.40;;;;;;;;;;7386205;19;20007;-71
2023/01/13 11:33:09;;;;;;;5.55;1.58;;;;;;;;;;7381169;19;20341;-71
2023/01/13 11:35:40;;;;;;;9.02;2.17;;;;;;;;;;7382369;19;19995;-70
2023/01/13 11:38:11;;;;;;;;;;;;;;;;;;7384015;19;20357;-72
2023/01/13 11:40:45;;;;;;;9.10;1.48;;;;;;;;;;7386496;19;19915;-71
2023/01/13 11:43:20;;;;;;;9.18;1.75;;;;;;;;;;7385389;19;20076;-71
2023/01/13 11:45:54;;;;;;;5.68;1.70;;;;;;;;;;7387363;19;20019;-71
2023/01/13 11:48:25;;;;;;;7.22;1.45;;;;;;;;;;7388941;19;19998;-72
2023/01/13 11:51:09;;;;;;;;;;;;;;;;;;7390148;19;20106;-70
2023/01/13 11:54:18;;;;;;;7.47;1.63;;;;;;;;;;7389949;19;20321;-70
2023/01/13 11:57:09;;;;;;;8.90;1.95;;;;;;;;;;7387342;19;20027;-71
2023/01/13 12:00:10;;;;;;;8.30;1.80;;;;;;;;;;7386301;19;20074;-70
2023/01/13 12:02:50;;;;;;;5.03;1.75;;;;;;;;;;7389753;19;20006;-71
2023/01/13 12:05:22;;;;;;;5.35;1.45;;;;;;;;;;7389236;19;20379;-72
2023/01/13 12:08:09;;;;;;;6.68;2.10;;;;;;;;;;7391348;19;20002;-70
2023/01/13 12:10:48;;;;;;;6.18;1.70;;;;;;;;;;7387846;19;20029;-71
2023/01/13 12:13:24;;;;;;;7.50;1.58;;;;;;;;;;7389080;19;19998;-71
2023/01/13 12:15:57;;;;;;;10.70;2.30;;;;;;;;;;7387567;19;19991;-72
2023/01/13 12:18:54;;;;;;;7.90;1.83;;;;;;;;;;7390494;19;20020;-70
2023/01/13 12:21:29;;;;;;;8.00;1.80;;;;;;;;;;7389944;19;20006;-70
2023/01/13 12:24:11;;;;;;;7.50;1.50;;;;;;;;;;7389446;19;20479;-72
2023/01/13 12:26:43;;;;;;;10.93;1.73;;;;;;;;;;7387025;19;20003;-71
2023/01/13 12:29:14;;;;;;;6.15;1.23;;;;;;;;;;7389395;19;20003;-70
2023/01/13 12:31:40;;;;;;;5.20;1.45;;;;;;;;;;7388463;19;20058;-71
2023/01/13 12:34:11;;;;;;;14.85;1.92;;;;;;;;;;7385795;19;20009;-71
2023/01/13 12:36:36;;;;;;;;;;;;;;;;;;7387366;19;20003;-71
2023/01/13 12:39:15;;;;;;;6.43;1.50;;;;;;;;;;7389152;19;19925;-71
2023/01/13 12:45:05;;;;;;;9.23;2.08;;;;;;;;;;7383012;19;20102;-70
2023/01/13 12:47:48;;;;;;;4.45;1.00;;;;;;;;;;7389354;19;19999;-72
2023/01/13 12:50:22;;;;;;;6.75;1.50;;;;;;;;;;7385079;19;20010;-72
2023/01/13 12:52:51;;;;;;;5.05;1.52;;;;;;;;;;7388623;19;19998;-70
2023/01/13 12:55:34;;;;;;;11.90;1.83;;;;;;;;;;7392534;19;20009;-72
2023/01/13 12:58:05;;;;;;;6.85;1.45;;;;;;;;;;7394608;19;19994;-70
2023/01/13 13:00:52;;;;;;;;;;;;;;;;;;7390787;19;20037;-70
2023/01/13 13:03:26;;;;;;;7.72;1.30;;;;;;;;;;7389922;19;19960;-71
2023/01/13 13:06:06;;;;;;;12.23;1.52;;;;;;;;;;7390188;19;20323;-70
2023/01/13 13:08:42;;;;;;;9.35;1.48;;;;;;;;;;7388383;19;19999;-70
2023/01/13 13:14:09;;;;;;;7.82;1.77;;;;;;;;;;7388856;19;20005;-71
2023/01/13 13:16:46;;;;;;;6.60;1.77;;;;;;;;;;7387670;19;20006;-71
2023/01/13 13:19:18;;;;;;;6.75;1.27;;;;;;;;;;7389069;19;19994;-71
2023/01/13 13:22:15;;;;;;;6.00;1.48;;;;;;;;;;7388476;19;20002;-71
2023/01/13 13:24:50;;;;;;;7.97;2.00;;;;;;;;;;7386719;19;20541;-71
2023/01/13 13:27:37;;;;;;;10.27;1.83;;;;;;;;;;7387766;19;20765;-71
2023/01/13 13:30:12;;;;;;;10.95;1.80;;;;;;;;;;7385577;19;20354;-70
2023/01/13 13:33:16;;;;;;;6.60;1.60;;;;;;;;;;7386016;19;20353;-72
2023/01/13 13:36:05;;;;;;;7.90;1.45;;;;;;;;;;7387282;19;20855;-71
2023/01/13 13:47:41;;;;;;;10.70;2.05;;;;;;;;;;7388960;19;20005;-70
2023/01/13 13:50:13;;;;;;;4.93;1.48;;;;;;;;;;7386176;19;19990;-72
2023/01/13 13:52:52;;;;;;;9.25;1.88;;;;;;;;;;7385635;19;20001;-72
2023/01/13 13:55:21;;;;;;;3.75;1.10;;;;;;;;;;7387754;19;20106;-71
2023/01/13 13:57:49;;;;;;;3.90;1.27;;;;;;;;;;7388824;19;20033;-71
2023/01/13 14:00:14;;;;;;;5.53;1.33;;;;;;;;;;7386064;19;20058;-72
2023/01/13 14:02:50;;;;;;;6.22;1.95;;;;;;;;;;7385485;19;20019;-71
2023/01/13 14:05:28;;;;;;;9.18;1.48;;;;;;;;;;7385826;19;20072;-71
2023/01/13 14:07:59;;;;;;;12.15;1.77;;;;;;;;;;7388105;19;20010;-71
2023/01/13 14:10:36;;;;;;;6.13;1.90;;;;;;;;;;7383631;19;20141;-72
2023/01/13 14:13:12;;;;;;;4.88;1.20;;;;;;;;;;7386735;19;20686;-72
2023/01/13 14:15:38;;;;;;;6.60;1.42;;;;;;;;;;7385630;19;19999;-72
2023/01/13 14:18:13;;;;;;;6.65;1.50;;;;;;;;;;7384892;19;20383;-72
2023/01/13 14:20:39;;;;;;;12.40;1.42;;;;;;;;;;7388738;19;20010;-71
2023/01/13 14:23:05;;;;;;;6.55;1.33;;;;;;;;;;7389742;19;19998;-72
2023/01/13 14:25:38;;;;;;;4.90;1.20;;;;;;;;;;7388758;19;20329;-70
2023/01/13 14:28:28;;;;;;;6.18;1.38;;;;;;;;;;7387293;19;19997;-71
2023/01/13 14:30:55;;;;;;;6.90;1.60;;;;;;;;;;7387253;19;20034;-72
2023/01/13 14:33:43;;;;;;;2.00;1.00;;;;;;;;;;7388035;19;20506;-71
2023/01/13 14:36:20;;;;;;;5.93;1.38;;;;;;;;;;7386678;19;20002;-73
2023/01/13 14:39:04;;;;;;;6.78;1.55;;;;;;;;;;7389962;19;20019;-71
2023/01/13 14:41:33;;;;;;;8.88;1.60;;;;;;;;;;7393984;19;20559;-71
2023/01/13 14:44:02;;;;;;;6.07;1.65;;;;;;;;;;7386771;19;20018;-71
2023/01/13 14:46:38;;;;;;;3.95;1.23;;;;;;;;;;7385410;19;20005;-70
2023/01/13 14:49:03;;;;;;;7.85;1.77;;;;;;;;;;7391552;19;20038;-72
2023/01/13 14:51:30;;;;;;;6.55;1.35;;;;;;;;;;7392285;19;20003;-71
2023/01/13 14:53:56;;;;;;;5.05;1.20;;;;;;;;;;7388216;19;20003;-72
2023/01/13 14:56:43;;;;;;;5.00;1.38;;;;;;;;;;7392502;19;20010;-70
2023/01/13 14:59:32;;;;;;;5.50;1.30;;;;;;;;;;7391305;19;19999;-72
2023/01/13 15:01:58;;;;;;;4.32;1.30;;;;;;;;;;7393503;19;20015;-73
2023/01/13 15:04:32;;;;;;;4.03;1.40;;;;;;;;;;7388543;19;20010;-73
2023/01/13 15:06:59;;;;;;;2.33;1.02;;;;;;;;;;7394383;19;20003;-71
2023/01/13 15:09:28;;;;;;;7.80;1.70;;;;;;;;;;7391492;19;20062;-72
2023/01/13 15:11:55;;;;;;;4.43;1.30;;;;;;;;;;7390720;19;20002;-72
2023/01/13 15:14:39;;;;;;;6.85;1.35;;;;;;;;;;7384463;19;20003;-71
2023/01/13 15:17:14;;;;;;;6.70;1.50;;;;;;;;;;7385409;19;20357;-72
2023/01/13 15:19:39;;;;;;;7.13;1.58;;;;;;;;;;7381688;19;19999;-70
2023/01/13 15:22:04;;;;;;;4.50;1.42;;;;;;;;;;7385465;19;20005;-71
2023/01/13 15:24:30;;;;;;;7.18;1.52;;;;;;;;;;7382227;19;20003;-72
2023/01/13 15:26:55;;;;;;;5.00;1.20;;;;;;;;;;7388429;19;20832;-72
2023/01/13 15:29:21;;;;;;;4.15;1.27;;;;;;;;;;7385714;19;20399;-71
2023/01/13 15:31:46;;;;;;;4.80;1.48;;;;;;;;;;7385526;19;20082;-73
2023/01/13 15:34:11;;;;;;;3.08;1.10;;;;;;;;;;7387529;19;20010;-72
2023/01/13 15:36:38;;;;;;;6.70;1.40;;;;;;;;;;7385031;19;20357;-73
2023/01/13 15:39:03;;;;;;;3.85;1.10;;;;;;;;;;7389198;19;20019;-71
2023/01/13 15:47:02;;;;;;;5.38;1.50;;;;;;;;;;7390325;19;20487;-72
2023/01/13 15:49:35;;;;;;;6.63;1.33;;;;;;;;;;7389575;19;20488;-71
2023/01/13 15:52:10;;;;;;;5.70;1.33;;;;;;;;;;7392566;19;20007;-72
2023/01/13 15:54:36;;;;;;;6.50;1.52;;;;;;;;;;7387823;19;20032;-71
2023/01/13 15:57:01;;;;;;;5.18;1.30;;;;;;;;;;7387572;19;20006;-73
2023/01/13 15:59:27;;;;;;;7.97;1.63;;;;;;;;;;7389127;19;20003;-72
2023/01/13 16:01:52;;;;;;;6.10;1.40;;;;;;;;;;7387353;19;20006;-72
2023/01/13 16:04:17;;;;;;;6.93;1.20;;;;;;;;;;7386127;19;20089;-72
2023/01/13 16:06:43;;;;;;;3.95;1.17;;;;;;;;;;7388357;19;20059;-73
2023/01/13 16:09:12;;;;;;;2.92;1.17;;;;;;;;;;7388202;19;20500;-72
2023/01/13 16:11:38;;;;;;;8.27;1.67;;;;;;;;;;7386144;19;20066;-72
2023/01/13 16:14:03;;;;;;;4.10;1.52;;;;;;;;;;7385792;19;20660;-71
2023/01/13 16:16:28;;;;;;;5.75;1.45;;;;;;;;;;7385963;19;20346;-72
2023/01/13 16:18:54;;;;;;;6.75;1.52;;;;;;;;;;7386144;19;20002;-73